Terminal Aerodrome Forecast
Issued by NWS

Home | Current Version | Previous Version | Text Only | Print | Product List | Glossary On
Versions: 1 2 3 4 5 6 7 8 9 10 11 12 13 14
000
FTUS42 TJSJ 241131
TAFKPK
TAF
TKPK 241131Z 2412/2512 08012KT P6SM VCSH FEW015 SCT040
     FM241300 10014KT P6SM VCSH FEW018 SCT025
     FM242200 07010KT P6SM FEW018=

USA.gov is the U.S. government's official web portal to all federal, state and local government web resources and services.